createdAt,value
2018-07-02T00:00:20.306Z,20.00
2018-07-02T00:02:49.731Z,21.20
2018-07-02T00:05:19.217Z,21.10
2018-07-02T00:07:48.681Z,20.30
2018-07-02T00:10:17.969Z,20.40
2018-07-02T00:12:47.439Z,21.30
2018-07-02T00:15:16.677Z,20.70
2018-07-02T00:17:46.268Z,21.30
2018-07-02T00:20:15.673Z,22.20
2018-07-02T00:22:45.265Z,22.90
2018-07-02T00:25:14.575Z,22.30
2018-07-02T00:27:44.024Z,21.70
2018-07-02T00:30:13.368Z,22.10
2018-07-02T00:32:42.601Z,20.80
2018-07-02T00:35:11.846Z,20.80
2018-07-02T00:37:40.984Z,20.40
2018-07-02T00:40:10.240Z,20.30
2018-07-02T00:42:39.418Z,20.00
2018-07-02T00:45:08.672Z,18.50
2018-07-02T00:47:37.935Z,18.40
2018-07-02T00:50:07.496Z,19.70
2018-07-02T00:52:36.670Z,20.70
2018-07-02T00:55:06.364Z,19.50
2018-07-02T00:57:35.663Z,19.30
2018-07-02T01:00:15.619Z,20.70
2018-07-02T01:02:45.129Z,21.90
2018-07-02T01:05:14.684Z,21.90
2018-07-02T01:07:45.082Z,20.60
2018-07-02T01:10:14.572Z,21.00
2018-07-02T01:12:43.982Z,21.40
2018-07-02T01:15:13.397Z,22.00
2018-07-02T01:17:43.045Z,22.50
2018-07-02T01:20:12.485Z,22.70
2018-07-02T01:22:41.669Z,22.60
2018-07-02T01:25:10.772Z,22.70
2018-07-02T01:27:39.940Z,22.80
2018-07-02T01:30:09.395Z,22.80
2018-07-02T01:32:38.671Z,22.90
2018-07-02T01:35:07.911Z,22.80
2018-07-02T01:37:37.284Z,22.70
2018-07-02T01:40:06.591Z,22.80
2018-07-02T01:42:35.739Z,23.00
2018-07-02T01:45:05.280Z,22.70
2018-07-02T01:47:34.596Z,22.70
2018-07-02T01:50:04.099Z,22.70
2018-07-02T01:55:02.322Z,22.80
2018-07-02T02:00:00.201Z,22.60
2018-07-02T02:02:29.420Z,22.70
2018-07-02T02:04:58.748Z,22.60
2018-07-02T02:07:27.953Z,22.60
2018-07-02T02:09:57.128Z,22.60
2018-07-02T02:12:26.788Z,22.50
2018-07-02T02:14:55.960Z,22.50
2018-07-02T02:17:25.516Z,22.50
2018-07-02T02:19:54.680Z,22.50
2018-07-02T02:22:23.823Z,22.50
2018-07-02T02:24:52.897Z,22.40
2018-07-02T02:27:22.256Z,22.50
2018-07-02T02:29:51.421Z,22.50
2018-07-02T02:32:20.567Z,22.60
2018-07-02T02:34:49.853Z,22.30
2018-07-02T02:37:19.331Z,22.40
2018-07-02T02:39:48.636Z,22.50
2018-07-02T02:42:18.148Z,22.50
2018-07-02T02:44:47.557Z,22.50
2018-07-02T02:47:16.863Z,22.30
2018-07-02T02:49:46.303Z,21.40
2018-07-02T02:52:15.737Z,21.80
2018-07-02T02:54:45.421Z,21.60
2018-07-02T02:59:44.253Z,21.50
2018-07-02T03:02:13.696Z,20.20
2018-07-02T03:04:43.298Z,20.90
2018-07-02T03:07:12.589Z,21.00
2018-07-02T03:09:42.082Z,21.10
2018-07-02T03:12:11.387Z,21.30
2018-07-02T03:14:40.753Z,20.00
2018-07-02T03:17:10.144Z,20.50
2018-07-02T03:19:39.381Z,21.50
2018-07-02T03:22:08.794Z,21.50
2018-07-02T03:24:38.181Z,21.80
2018-07-02T03:27:07.356Z,22.00
2018-07-02T03:29:36.696Z,22.20
2018-07-02T03:32:05.978Z,22.10
2018-07-02T03:34:35.363Z,20.60
2018-07-02T03:37:04.696Z,20.20
2018-07-02T03:39:33.846Z,21.20
2018-07-02T03:42:03.140Z,20.50
2018-07-02T03:44:32.255Z,20.50
2018-07-02T03:47:01.480Z,21.50
2018-07-02T03:49:30.800Z,21.70
2018-07-02T03:51:59.988Z,20.60
2018-07-02T03:54:29.204Z,19.00
2018-07-02T03:56:58.277Z,18.30
2018-07-02T03:59:27.745Z,17.80
2018-07-02T04:04:25.564Z,19.50
2018-07-02T04:06:54.616Z,17.90
2018-07-02T04:09:23.860Z,18.20
2018-07-02T04:11:52.976Z,17.70
2018-07-02T04:14:22.182Z,19.70
2018-07-02T04:16:51.383Z,17.20
2018-07-02T04:21:49.488Z,17.70
2018-07-02T04:24:18.790Z,17.50
2018-07-02T04:26:48.369Z,18.90
2018-07-02T04:29:18.064Z,18.90
2018-07-02T04:31:47.376Z,18.30
2018-07-02T04:34:16.601Z,19.10
2018-07-02T04:36:46.501Z,18.10
2018-07-02T04:39:15.927Z,18.60
2018-07-02T04:41:45.327Z,20.70
2018-07-02T04:46:44.387Z,23.50
2018-07-02T04:49:14.172Z,24.90
2018-07-02T04:51:43.758Z,25.00
2018-07-02T04:54:13.170Z,24.40
2018-07-02T04:56:42.693Z,25.30
2018-07-02T04:59:12.264Z,26.00
2018-07-02T05:01:41.591Z,24.30
2018-07-02T05:04:11.435Z,24.60
2018-07-02T05:06:40.927Z,22.80
2018-07-02T05:09:10.152Z,24.00
2018-07-02T05:11:39.471Z,21.60
2018-07-02T05:14:08.707Z,20.40
2018-07-02T05:16:37.917Z,20.80
2018-07-02T05:19:07.353Z,21.50
2018-07-02T05:21:36.499Z,21.70
2018-07-02T05:24:05.757Z,20.70
2018-07-02T05:26:35.064Z,22.00
2018-07-02T05:29:04.527Z,20.90
2018-07-02T05:31:33.692Z,20.90
2018-07-02T05:34:03.868Z,20.20
2018-07-02T05:36:33.180Z,21.90
2018-07-02T05:39:02.506Z,21.80
2018-07-02T05:41:32.490Z,21.40
2018-07-02T05:44:01.742Z,21.30
2018-07-02T05:46:31.112Z,21.50
2018-07-02T05:49:00.460Z,21.60
2018-07-02T05:51:29.746Z,22.40
2018-07-02T05:53:58.998Z,21.70
2018-07-02T05:56:28.365Z,22.20
2018-07-02T05:58:57.717Z,22.40
2018-07-02T06:01:27.000Z,22.60
2018-07-02T06:03:56.143Z,23.80
2018-07-02T06:06:25.418Z,24.30
2018-07-02T06:08:55.071Z,24.10
2018-07-02T06:11:24.444Z,22.90
2018-07-02T06:13:53.687Z,23.40
2018-07-02T06:16:23.071Z,24.60
2018-07-02T06:18:52.524Z,25.00
2018-07-02T06:21:21.801Z,24.90
2018-07-02T06:23:51.284Z,25.40
2018-07-02T06:26:20.721Z,25.90
2018-07-02T06:28:50.189Z,23.40
2018-07-02T06:31:19.365Z,23.60
2018-07-02T06:33:48.619Z,24.40
2018-07-02T06:36:17.897Z,26.10
2018-07-02T06:38:47.259Z,25.40
2018-07-02T06:41:16.620Z,24.70
2018-07-02T06:43:46.340Z,26.90
2018-07-02T06:46:15.757Z,24.80
2018-07-02T06:48:45.110Z,24.90
2018-07-02T06:51:14.512Z,22.90
2018-07-02T06:53:43.762Z,23.90
2018-07-02T06:56:13.213Z,24.60
2018-07-02T06:58:42.678Z,25.00
2018-07-02T07:01:12.068Z,26.90
2018-07-02T07:03:41.572Z,25.70
2018-07-02T07:06:11.022Z,26.20
2018-07-02T07:08:40.685Z,25.40
2018-07-02T07:11:09.993Z,25.30
2018-07-02T07:13:38.914Z,27.60
2018-07-02T07:16:08.399Z,25.80
2018-07-02T07:18:37.603Z,27.10
2018-07-02T07:21:06.852Z,26.10
2018-07-02T07:23:36.019Z,25.90
2018-07-02T07:26:05.376Z,26.00
2018-07-02T07:28:34.656Z,27.40
2018-07-02T07:31:04.040Z,26.60
2018-07-02T07:33:33.173Z,26.50
2018-07-02T07:36:02.421Z,26.30
2018-07-02T07:38:31.953Z,25.50
2018-07-02T07:41:01.164Z,26.00
2018-07-02T07:43:30.332Z,26.80
2018-07-02T07:45:59.460Z,26.80
2018-07-02T07:48:28.688Z,26.50
2018-07-02T07:50:58.325Z,27.40
2018-07-02T07:55:56.346Z,26.70
2018-07-02T07:58:25.658Z,28.20
2018-07-02T08:00:55.044Z,27.80
2018-07-02T08:03:24.507Z,29.40
2018-07-02T08:05:54.026Z,28.00
2018-07-02T08:08:23.516Z,27.40
2018-07-02T08:10:53.200Z,28.00
2018-07-02T08:13:22.589Z,28.90
2018-07-02T08:15:51.950Z,27.60
2018-07-02T08:18:21.364Z,27.80
2018-07-02T08:20:50.802Z,29.60
2018-07-02T08:23:20.164Z,29.10
2018-07-02T08:25:49.813Z,29.90
2018-07-02T08:28:19.255Z,30.00
2018-07-02T08:30:48.708Z,28.90
2018-07-02T08:33:17.953Z,28.40
2018-07-02T08:35:47.160Z,28.60
2018-07-02T08:38:16.361Z,27.90
2018-07-02T08:40:45.680Z,27.60
2018-07-02T08:43:15.192Z,27.80
2018-07-02T08:45:44.352Z,28.30
2018-07-02T08:48:13.817Z,28.40
2018-07-02T08:50:43.228Z,28.30
2018-07-02T08:53:12.656Z,27.80
2018-07-02T08:55:42.548Z,27.40
2018-07-02T08:58:12.101Z,27.60
2018-07-02T09:00:41.258Z,28.60
2018-07-02T09:03:11.704Z,28.80
2018-07-02T09:05:41.052Z,30.10
2018-07-02T09:08:10.477Z,29.10
2018-07-02T09:10:39.648Z,29.30
2018-07-02T09:13:09.070Z,28.60
2018-07-02T09:15:38.424Z,27.90
2018-07-02T09:18:07.620Z,28.40
2018-07-02T09:20:36.914Z,28.20
2018-07-02T09:23:06.139Z,28.10
2018-07-02T09:25:35.296Z,27.90
2018-07-02T09:30:33.104Z,28.30
2018-07-02T09:33:02.148Z,28.00
2018-07-02T09:35:31.477Z,27.90
2018-07-02T09:38:00.801Z,28.40
2018-07-02T09:40:30.062Z,29.40
2018-07-02T09:42:59.425Z,30.60
2018-07-02T09:45:28.576Z,27.50
2018-07-02T09:47:57.837Z,27.70
2018-07-02T09:50:27.114Z,29.10
2018-07-02T09:52:56.690Z,30.20
2018-07-02T09:55:26.228Z,29.60
2018-07-02T09:57:55.512Z,30.20
2018-07-02T10:00:24.785Z,29.60
2018-07-02T10:02:54.035Z,28.60
2018-07-02T10:05:23.657Z,28.30
2018-07-02T10:07:53.260Z,29.50
2018-07-02T10:10:22.614Z,28.70
2018-07-02T10:15:21.941Z,29.00
2018-07-02T10:17:51.392Z,29.60
2018-07-02T10:20:20.892Z,29.10
2018-07-02T10:22:50.478Z,28.50
2018-07-02T10:25:19.935Z,29.60
2018-07-02T10:27:49.405Z,30.00
2018-07-02T10:30:18.642Z,28.00
2018-07-02T10:32:47.873Z,28.30
2018-07-02T10:35:17.116Z,29.10
2018-07-02T10:37:46.396Z,30.30
2018-07-02T10:40:15.749Z,29.70
2018-07-02T10:42:45.029Z,30.40
2018-07-02T10:45:15.960Z,29.50
2018-07-02T10:47:45.303Z,29.40
2018-07-02T10:50:14.675Z,28.60
2018-07-02T10:52:44.008Z,29.40
2018-07-02T10:55:13.431Z,29.80
2018-07-02T10:57:42.857Z,28.00
2018-07-02T11:00:12.206Z,29.80
2018-07-02T11:02:41.547Z,30.50
2018-07-02T11:05:10.859Z,30.20
2018-07-02T11:07:40.369Z,29.60
2018-07-02T11:10:09.733Z,29.20
2018-07-02T11:12:39.177Z,29.80
2018-07-02T11:15:08.417Z,29.60
2018-07-02T11:17:37.476Z,29.40
2018-07-02T11:20:06.862Z,29.40
2018-07-02T11:22:36.104Z,28.90
2018-07-02T11:25:05.485Z,28.90
2018-07-02T11:27:34.529Z,29.10
2018-07-02T11:30:03.905Z,27.80
2018-07-02T11:32:32.949Z,26.80
2018-07-02T11:35:02.143Z,26.40
2018-07-02T11:37:31.301Z,25.60
2018-07-02T11:40:00.541Z,26.20
2018-07-02T11:42:29.580Z,26.20
2018-07-02T11:44:58.660Z,26.50
2018-07-02T11:47:27.781Z,26.90
2018-07-02T11:49:56.968Z,26.70
2018-07-02T11:52:26.753Z,26.50
2018-07-02T11:54:56.120Z,26.40
2018-07-02T11:57:25.723Z,26.80
2018-07-02T11:59:55.097Z,26.70
2018-07-02T12:02:24.340Z,26.90
2018-07-02T12:04:53.413Z,27.70
2018-07-02T12:07:22.877Z,27.20
2018-07-02T12:09:52.199Z,27.40
2018-07-02T12:12:21.480Z,27.60
2018-07-02T12:14:50.976Z,27.60
2018-07-02T12:17:20.605Z,28.10
2018-07-02T12:19:49.993Z,27.60
2018-07-02T12:22:19.313Z,27.10
2018-07-02T12:24:48.522Z,27.30
2018-07-02T12:27:17.828Z,26.60
2018-07-02T12:29:47.248Z,27.10
2018-07-02T12:32:16.629Z,27.30
2018-07-02T12:34:45.980Z,27.70
2018-07-02T12:37:15.182Z,27.30
2018-07-02T12:39:44.395Z,27.50
2018-07-02T12:42:13.668Z,27.50
2018-07-02T12:44:43.112Z,27.20
2018-07-02T12:47:12.288Z,26.80
2018-07-02T12:49:41.961Z,27.20
2018-07-02T12:52:11.266Z,26.80
2018-07-02T12:54:40.574Z,27.60
2018-07-02T12:57:10.317Z,26.90
2018-07-02T12:59:39.550Z,26.80
2018-07-02T13:02:08.720Z,27.30
2018-07-02T13:04:37.825Z,27.30
2018-07-02T13:07:07.347Z,27.70
2018-07-02T13:09:36.652Z,27.80
2018-07-02T13:12:05.824Z,27.70
2018-07-02T13:14:35.091Z,27.00
2018-07-02T13:17:04.240Z,26.60
2018-07-02T13:19:33.601Z,27.40
2018-07-02T13:22:02.756Z,27.40
2018-07-02T13:24:31.977Z,27.20
2018-07-02T13:27:01.325Z,27.80
2018-07-02T13:29:30.659Z,28.00
2018-07-02T13:31:59.944Z,28.50
2018-07-02T13:34:29.369Z,27.40
2018-07-02T13:36:58.335Z,27.50
2018-07-02T13:39:27.337Z,27.00
2018-07-02T13:41:56.417Z,27.10
2018-07-02T13:44:25.540Z,27.40
2018-07-02T13:46:54.793Z,27.20
2018-07-02T13:49:24.194Z,27.50
2018-07-02T13:51:53.541Z,27.50
2018-07-02T13:54:22.828Z,28.20
2018-07-02T13:56:52.237Z,27.70
2018-07-02T13:59:21.769Z,28.30
2018-07-02T14:01:51.297Z,28.10
2018-07-02T14:04:20.928Z,28.30
2018-07-02T14:06:51.305Z,27.60
2018-07-02T14:09:21.848Z,27.60
2018-07-02T14:11:51.624Z,27.30
2018-07-02T14:14:21.694Z,27.70
2018-07-02T14:16:51.208Z,27.60
2018-07-02T14:19:20.729Z,28.00
2018-07-02T14:21:50.141Z,27.80
2018-07-02T14:24:19.436Z,28.00
2018-07-02T14:26:49.164Z,28.20
2018-07-02T14:29:18.519Z,27.80
2018-07-02T14:31:47.875Z,27.80
2018-07-02T14:34:17.280Z,27.20
2018-07-02T14:36:46.472Z,27.30
2018-07-02T14:39:15.671Z,27.40
2018-07-02T14:41:44.981Z,28.00
2018-07-02T14:44:14.196Z,27.70
2018-07-02T14:46:43.594Z,27.90
2018-07-02T14:49:12.953Z,28.20
2018-07-02T14:51:42.184Z,27.70
2018-07-02T14:54:11.787Z,27.50
2018-07-02T14:56:41.178Z,27.20
2018-07-02T14:59:10.516Z,27.80
2018-07-02T15:01:39.885Z,27.40
2018-07-02T15:04:09.178Z,27.90
2018-07-02T15:06:38.292Z,27.70
2018-07-02T15:09:11.027Z,27.60
2018-07-02T15:11:40.394Z,28.00
2018-07-02T15:14:09.956Z,27.60
2018-07-02T15:16:39.344Z,27.30
2018-07-02T15:19:09.175Z,27.40
2018-07-02T15:21:38.748Z,27.70
2018-07-02T15:24:08.092Z,27.60
2018-07-02T15:26:37.410Z,27.70
2018-07-02T15:29:06.791Z,28.10
2018-07-02T15:31:35.816Z,28.60
2018-07-02T15:34:05.069Z,28.10
2018-07-02T15:36:34.284Z,27.80
2018-07-02T15:39:03.798Z,27.60
2018-07-02T15:41:32.978Z,27.20
2018-07-02T15:44:02.285Z,27.40
2018-07-02T15:46:31.591Z,27.40
2018-07-02T15:49:00.944Z,27.70
2018-07-02T15:51:30.029Z,27.60
2018-07-02T15:53:59.119Z,27.40
2018-07-02T15:56:28.368Z,27.40
2018-07-02T15:58:57.546Z,27.50
2018-07-02T16:01:26.855Z,27.10
2018-07-02T16:06:24.960Z,27.30
2018-07-02T16:08:54.608Z,27.20
2018-07-02T16:11:23.847Z,27.10
2018-07-02T16:13:53.012Z,27.30
2018-07-02T16:16:22.256Z,27.20
2018-07-02T16:18:51.631Z,27.30
2018-07-02T16:21:20.976Z,27.30
2018-07-02T16:23:50.144Z,27.30
2018-07-02T16:26:19.508Z,27.20
2018-07-02T16:28:49.032Z,27.90
2018-07-02T16:31:18.472Z,27.40
2018-07-02T16:33:47.828Z,27.00
2018-07-02T16:36:17.300Z,27.00
2018-07-02T16:38:46.742Z,27.30
2018-07-02T16:41:16.105Z,27.60
2018-07-02T16:43:45.373Z,27.50
2018-07-02T16:46:15.047Z,27.00
2018-07-02T16:48:44.208Z,27.00
2018-07-02T16:51:13.671Z,27.00
2018-07-02T16:53:42.828Z,27.10
2018-07-02T16:56:12.164Z,27.00
2018-07-02T16:58:41.280Z,26.90
2018-07-02T17:01:10.660Z,26.90
2018-07-02T17:03:39.908Z,27.10
2018-07-02T17:06:09.250Z,27.20
2018-07-02T17:08:38.942Z,27.00
2018-07-02T17:11:08.408Z,26.90
2018-07-02T17:13:38.007Z,27.00
2018-07-02T17:18:36.207Z,27.10
2018-07-02T17:21:05.822Z,27.00
2018-07-02T17:23:35.326Z,27.30
2018-07-02T17:26:04.795Z,26.60
2018-07-02T17:28:34.353Z,26.60
2018-07-02T17:31:03.639Z,26.60
2018-07-02T17:33:32.974Z,26.70
2018-07-02T17:36:02.168Z,26.70
2018-07-02T17:38:31.521Z,26.40
2018-07-02T17:41:00.900Z,26.60
2018-07-02T17:43:30.152Z,26.50
2018-07-02T17:45:59.525Z,26.40
2018-07-02T17:48:28.976Z,26.70
2018-07-02T17:50:58.136Z,26.40
2018-07-02T17:53:27.514Z,26.20
2018-07-02T17:55:56.660Z,26.20
2018-07-02T17:58:26.132Z,26.50
2018-07-02T18:00:55.279Z,26.20
2018-07-02T18:03:24.436Z,26.30
2018-07-02T18:05:53.825Z,26.30
2018-07-02T18:08:23.260Z,26.10
2018-07-02T18:10:52.446Z,26.30
2018-07-02T18:13:21.689Z,26.40
2018-07-02T18:15:50.974Z,26.20
2018-07-02T18:18:20.439Z,25.90
2018-07-02T18:20:49.829Z,25.80
2018-07-02T18:23:19.053Z,25.80
2018-07-02T18:25:48.321Z,25.70
2018-07-02T18:28:17.654Z,25.70
2018-07-02T18:30:46.980Z,25.80
2018-07-02T18:33:16.356Z,26.10
2018-07-02T18:35:45.600Z,25.70
2018-07-02T18:38:14.869Z,25.80
2018-07-02T18:40:44.424Z,25.30
2018-07-02T18:43:13.760Z,25.30
2018-07-02T18:45:43.215Z,25.40
2018-07-02T18:48:12.741Z,25.20
2018-07-02T18:50:52.821Z,25.60
2018-07-02T18:53:22.111Z,25.60
2018-07-02T18:55:51.264Z,25.40
2018-07-02T18:58:20.545Z,25.20
2018-07-02T19:00:49.928Z,25.00
2018-07-02T19:03:19.078Z,24.70
2018-07-02T19:05:48.624Z,24.90
2018-07-02T19:08:17.899Z,24.90
2018-07-02T19:10:47.153Z,24.80
2018-07-02T19:13:16.602Z,24.80
2018-07-02T19:15:46.099Z,24.40
2018-07-02T19:18:15.353Z,25.00
2018-07-02T19:20:44.928Z,25.30
2018-07-02T19:23:14.224Z,25.40
2018-07-02T19:25:43.538Z,25.00
2018-07-02T19:28:12.612Z,24.40
2018-07-02T19:30:42.370Z,24.20
2018-07-02T19:33:11.745Z,24.00
2018-07-02T19:35:41.167Z,24.20
2018-07-02T19:38:10.606Z,24.50
2018-07-02T19:40:40.112Z,24.50
2018-07-02T19:43:09.576Z,24.90
2018-07-02T19:45:39.185Z,24.00
2018-07-02T19:48:08.853Z,23.60
2018-07-02T19:50:38.283Z,23.70
2018-07-02T19:53:08.512Z,23.70
2018-07-02T19:55:37.869Z,23.70
2018-07-02T19:58:07.976Z,23.50
2018-07-02T20:00:37.379Z,23.50
2018-07-02T20:03:06.957Z,23.20
2018-07-02T20:05:36.624Z,23.10
2018-07-02T20:08:06.205Z,23.70
2018-07-02T20:10:35.746Z,23.30
2018-07-02T20:13:05.519Z,23.00
2018-07-02T20:15:34.709Z,23.00
2018-07-02T20:18:04.242Z,23.00
2018-07-02T20:20:33.226Z,23.10
2018-07-02T20:23:02.417Z,22.90
2018-07-02T20:25:31.592Z,22.70
2018-07-02T20:28:00.739Z,23.30
2018-07-02T20:30:30.113Z,22.70
2018-07-02T20:32:59.549Z,23.30
2018-07-02T20:35:28.984Z,22.90
2018-07-02T20:37:58.190Z,22.90
2018-07-02T20:40:27.248Z,22.60
2018-07-02T20:42:56.408Z,22.70
2018-07-02T20:45:25.479Z,22.60
2018-07-02T20:47:54.928Z,22.90
2018-07-02T20:50:24.216Z,23.20
2018-07-02T20:52:53.872Z,23.20
2018-07-02T20:55:23.132Z,22.80
2018-07-02T20:57:52.399Z,22.50
2018-07-02T21:00:21.701Z,22.60
2018-07-02T21:02:50.916Z,22.50
2018-07-02T21:05:20.076Z,22.10
2018-07-02T21:07:49.492Z,22.00
2018-07-02T21:10:19.114Z,22.20
2018-07-02T21:12:48.435Z,21.80
2018-07-02T21:15:17.571Z,22.00
2018-07-02T21:17:46.736Z,21.90
2018-07-02T21:20:16.264Z,22.40
2018-07-02T21:22:45.645Z,21.90
2018-07-02T21:25:14.916Z,21.50
2018-07-02T21:27:44.694Z,21.90
2018-07-02T21:32:42.988Z,21.70
2018-07-02T21:35:12.487Z,21.70
2018-07-02T21:37:41.683Z,21.80
2018-07-02T21:40:11.244Z,21.80
2018-07-02T21:42:40.609Z,21.50
2018-07-02T21:45:10.023Z,21.50
2018-07-02T21:47:39.472Z,21.50
2018-07-02T21:50:08.840Z,21.90
2018-07-02T21:52:38.196Z,21.80
2018-07-02T21:55:07.448Z,22.20
2018-07-02T21:57:36.947Z,21.40
2018-07-02T22:00:09.791Z,21.20
2018-07-02T22:02:39.091Z,20.90
2018-07-02T22:05:08.735Z,21.60
2018-07-02T22:07:38.677Z,21.00
2018-07-02T22:10:08.294Z,21.00
2018-07-02T22:12:38.409Z,21.20
2018-07-02T22:15:07.876Z,21.20
2018-07-02T22:17:37.413Z,20.80
2018-07-02T22:20:07.900Z,20.80
2018-07-02T22:22:37.192Z,21.20
2018-07-02T22:25:06.669Z,21.20
2018-07-02T22:27:36.053Z,22.00
2018-07-02T22:30:05.170Z,22.10
2018-07-02T22:32:34.768Z,21.40
2018-07-02T22:35:03.892Z,21.40
2018-07-02T22:37:33.148Z,21.50
2018-07-02T22:40:02.517Z,21.80
2018-07-02T22:42:31.776Z,22.00
2018-07-02T22:45:01.061Z,21.00
2018-07-02T22:47:30.399Z,20.50
2018-07-02T22:49:59.884Z,21.10
2018-07-02T22:52:29.332Z,21.40
2018-07-02T22:54:58.604Z,21.40
2018-07-02T22:57:27.962Z,21.10
2018-07-02T22:59:57.228Z,21.60
2018-07-02T23:02:26.476Z,20.60
2018-07-02T23:04:56.104Z,20.50
2018-07-02T23:07:25.348Z,20.30
2018-07-02T23:09:54.644Z,20.80
2018-07-02T23:12:23.828Z,21.50
2018-07-02T23:14:53.121Z,21.50
2018-07-02T23:17:22.972Z,21.60
2018-07-02T23:19:52.441Z,22.60
2018-07-02T23:22:21.677Z,22.30
2018-07-02T23:24:51.353Z,21.30
2018-07-02T23:27:21.520Z,21.50
2018-07-02T23:29:51.080Z,21.30
2018-07-02T23:32:20.425Z,22.00
2018-07-02T23:34:49.988Z,21.70
2018-07-02T23:37:19.564Z,21.90
2018-07-02T23:42:18.437Z,21.60
2018-07-02T23:44:48.356Z,21.10
2018-07-02T23:47:17.906Z,20.10
2018-07-02T23:49:47.737Z,20.60
2018-07-02T23:52:17.356Z,21.80
2018-07-02T23:54:47.107Z,21.70
2018-07-02T23:57:16.604Z,22.20
2018-07-02T23:59:46.096Z,21.70
